x

South Hecate Strait (46185) Wave Buoy

5:00pm - Sat 25th Apr 2015 All times are PDT. -7 hours from GMT.

  • Sig Wave height 3.0ft
  • Peak Period 15s
  • Wind
    16mph, 18mph gusts
  • Sea Temp 50°f
  • Air Temp 49°f
  • Sea Pressure 1013.7mb
  • South Hecate Strait
  • South Hecate Strait

More Historic Weather Station data

Upgrade to MSW Pro to gain access to the past 30 days of data for over 8000 Wavebouys and Weather Stations around the globe.

Join Pro

Comparision Forecast

View Surf forecast
   
Sat 04/25 5:00pm 3ft 15s 16 18 mph 1013.7mb 50f 49f
4:00pm 3ft 15s 16 18 mph 1014.1mb 50f 50f
3:00pm 3.5ft 15s 13 18 mph 1014.1mb 50f 49f
2:00pm 3.5ft 15s 16 18 mph 1014.3mb 50f 50f
1:00pm 3.5ft 15s 18 22 mph 1014.4mb 50f 49f
12:00pm 3.5ft 15s 20 22 mph 1013.8mb 49f 47f
11:00am 2.5ft 16s 18 20 mph 1013.9mb 49f 47f
10:00am 3ft 16s 18 20 mph 1013.7mb 49f 47f
9:00am 2.5ft 16s 16 18 mph 1013.8mb 49f 47f
8:00am 2.5ft 16s 13 16 mph 1013.7mb 49f 47f
7:00am 2.5ft 16s 13 16 mph 1013.2mb 49f 47f
6:00am 2.5ft 16s 13 16 mph 1012.6mb 49f 47f
5:00am 3ft 16s 13
mph
1012.7mb 49f 47f
4:00am 3ft 16s 13 18 mph 1012.4mb 49f 47f
3:00am 3ft 16s 11 13 mph 1012.3mb 49f 47f
2:00am 3ft 16s 11 13 mph 1012.2mb 49f 48f
1:00am 3ft 8s 11 13 mph 1012.1mb 49f 47f
12:00am 3ft 16s 13 16 mph 1011.7mb 49f 47f
Fri 04/24 11:00pm 3.5ft 14s 13 16 mph 1011.5mb 49f 47f
10:00pm 3.5ft 16s 9 13 mph 1011mb 49f 47f
9:00pm 3.5ft 16s 13 16 mph 1010.3mb 49f 47f
8:00pm 4ft 7s 16 20 mph 1009.5mb 49f 47f
7:00pm 4.5ft 8s 18 20 mph 1008.9mb 49f 47f
6:00pm 4.5ft 9s 13 18 mph 1008.4mb 49f 47f
5:00pm 4.5ft 6s 2 7 mph 1008.3mb 49f 48f
4:00pm 5ft 6s 4 9 mph 1007.9mb 49f 48f
3:00pm 5ft 6s 11 13 mph 1007.6mb 49f 47f
2:00pm 5.5ft 6s 13 18 mph 1007.3mb 49f 46f
1:00pm 5.5ft 6s 20 25 mph 1006.8mb 49f 45f
12:00pm 5.5ft 6s 18 22 mph 1006.8mb 49f 45f
11:00am 5ft 11s 18 22 mph 1006.5mb 49f 45f
10:00am 5ft 12s 20 25 mph 1006mb 49f 44f
9:00am 5ft 11s 18 25 mph 1006mb 49f 44f
8:00am 4.5ft 12s 20 25 mph 1006.1mb 49f 44f
7:00am 5ft 8s 18 22 mph 1005.9mb 49f 44f
6:00am 5ft 7s 20 25 mph 1005.6mb 49f 44f
5:00am 5ft 8s 16 20 mph 1005.4mb 49f 46f
4:00am 5.5ft 9s 16 20 mph 1005.2mb 49f 47f
3:00am 5.5ft 12s 13 18 mph 1005.3mb 49f 47f
2:00am 6ft 12s 11 13 mph 1005.5mb 49f 47f
1:00am 6ft 11s 7 9 mph 1005.8mb 49f 47f
12:00am 5.5ft 10s 11 13 mph 1006.3mb 49f 46f
Thu 04/23 11:00pm 6.5ft 15s 9 13 mph 1006.4mb 49f 46f
10:00pm 6ft 12s 9 11 mph 1006.4mb 49f 46f
9:00pm 6ft 12s 7 9 mph 1006mb 49f 46f
8:00pm 6.5ft 12s 4 7 mph 1005.8mb 49f 46f
7:00pm 6ft 10s 4 7 mph 1005.3mb 50f 46f
6:00pm 6.5ft 10s 4 7 mph 1005.2mb 50f 46f
5:00pm 7ft 10s 7 11 mph 1005.3mb 50f 45f
4:00pm 7.5ft 10s 7 11 mph 1005.5mb 50f 45f
3:00pm 8ft 10s 2 4 mph 1005.7mb 50f 44f
2:00pm 7.5ft 10s 9 11 mph 1006mb 49f 41f
1:00pm 7.5ft 8s 16 20 mph 1005.9mb 49f 45f
12:00pm 7.5ft 8s 18 22 mph 1005.3mb 49f 45f
11:00am 7ft 10s 11 20 mph 1005.4mb 49f 47f
10:00am 7ft 8s 4 9 mph 1005.6mb 49f 46f
9:00am 8ft 8s 2 4 mph 1005.5mb 49f 46f
8:00am 9ft 10s 9 20 mph 1005.2mb 49f 46f
7:00am 9ft 9s 9 13 mph 1004.8mb 49f 47f
6:00am 9.5ft 9s 9 16 mph 1004.5mb 49f 46f
5:00am 11.5ft 8s 13 18 mph 1004.4mb 49f 46f
4:00am 12.5ft 9s 16 18 mph 1004.3mb 49f 46f
3:00am 14ft 9s 22 27 mph 1004.1mb 49f 46f
2:00am 15ft 8s 25 31 mph 1002.5mb 49f 46f
1:00am  -   -  36
mph
1004.2mb 49f 44f
Wed 04/22 11:00pm 10ft 7s 36 47 mph 1006.1mb 49f 46f
10:00pm 8.5ft 7s 36 43 mph 1007.5mb 49f 46f
9:00pm 7ft 6s 31 40 mph 1008.8mb 49f 46f
8:00pm 6ft 6s 31 38 mph 1010.3mb 49f 46f
7:00pm 5ft 5s 27 36 mph 1012mb 50f 47f
6:00pm 4.5ft 5s 27 34 mph 1013.7mb 50f 45f
5:00pm 4ft 9s 22 29 mph 1015.2mb 50f 46f
4:00pm 3.5ft 7s 22 27 mph 1016.3mb 50f 47f
3:00pm 3.5ft 11s 20 25 mph 1017.4mb 50f 46f
2:00pm 3.5ft 7s 18 22 mph 1018.4mb 50f 46f
1:00pm 3.5ft 11s 13 16 mph 1019.3mb 50f 46f
12:00pm 3.5ft 11s  -  mph 1020mb 50f 46f
11:00am 3.5ft 12s 4
mph
1020.7mb 50f 46f
10:00am 4ft 12s 2
mph
1021.1mb 50f 47f
9:00am 4ft 8s 4 9 mph 1021.2mb 49f 45f
7:00am 4.5ft 6s 16 18 mph 1021.1mb 49f 45f
6:00am 4.5ft 6s 13 18 mph 1020.8mb 49f 45f
5:00am 5ft 6s 16 20 mph 1020.8mb 49f 46f
4:00am 5ft 5s 18 22 mph 1020.8mb 49f 46f
3:00am 5ft 5s 18 22 mph 1020.9mb 49f 46f
2:00am 5ft 5s 20 27 mph 1020.9mb 49f 46f